createdAt,value
2022-09-21T00:01:46.572Z,3.8
2022-09-21T00:03:50.221Z,5.6
2022-09-21T00:05:53.816Z,16.1
2022-09-21T00:08:00.490Z,8.4
2022-09-21T00:10:04.078Z,5.7
2022-09-21T00:12:07.742Z,6.1
2022-09-21T00:16:15.117Z,8.5
2022-09-21T00:18:18.523Z,4.4
2022-09-21T00:20:22.149Z,4
2022-09-21T00:24:32.453Z,4.9
2022-09-21T00:26:36.077Z,3.5
2022-09-21T00:30:43.287Z,8.3
2022-09-21T00:39:00.796Z,3.3
2022-09-21T00:41:04.376Z,5.3
2022-09-21T00:42:07.731Z,4.5
2022-09-21T00:44:11.330Z,8.8
2022-09-21T00:46:14.952Z,6
2022-09-21T00:48:18.578Z,4.4
2022-09-21T00:50:25.232Z,10.1
2022-09-21T00:52:28.871Z,5
2022-09-21T00:54:32.451Z,3.9
2022-09-21T01:00:43.361Z,7.2
2022-09-21T01:04:53.607Z,8.1
2022-09-21T01:15:11.662Z,4.9
2022-09-21T01:21:25.591Z,2.9
2022-09-21T01:23:29.713Z,8.9
2022-09-21T01:25:33.293Z,3.3
2022-09-21T01:27:36.904Z,5
2022-09-21T01:29:40.517Z,3.6
2022-09-21T01:31:44.135Z,8
2022-09-21T01:33:50.815Z,3
2022-09-21T01:35:54.438Z,1.6
2022-09-21T01:37:58.068Z,3.1
2022-09-21T01:40:22.597Z,3.1
2022-09-21T01:42:26.083Z,3.9
2022-09-21T01:44:29.722Z,8.6
2022-09-21T01:46:36.426Z,5
2022-09-21T01:48:40.038Z,8.5
2022-09-21T01:50:43.662Z,3.1
2022-09-21T02:01:04.964Z,5.1
2022-09-21T02:07:15.757Z,5.4
2022-09-21T02:09:19.347Z,6.9
2022-09-21T02:11:22.992Z,7.9
2022-09-21T02:13:26.601Z,8.5
2022-09-21T02:15:33.323Z,4.5
2022-09-21T02:17:36.956Z,2.4
2022-09-21T02:19:40.547Z,6.5
2022-09-21T02:21:44.194Z,4
2022-09-21T02:23:47.811Z,4.6
2022-09-21T02:27:55.108Z,5.2
2022-09-21T02:30:01.818Z,2.9
2022-09-21T02:32:05.406Z,5.8
2022-09-21T02:34:09.041Z,4.5
2022-09-21T02:37:15.997Z,4.6
2022-09-21T02:39:19.632Z,5.6
2022-09-21T02:41:23.284Z,7.9
2022-09-21T02:43:29.987Z,4.9
2022-09-21T02:47:37.262Z,7.2
2022-09-21T02:51:44.526Z,8.3
2022-09-21T02:53:48.179Z,2.4
2022-09-21T02:55:55.711Z,10.1
2022-09-21T02:57:58.508Z,3.8
2022-09-21T03:00:02.174Z,2.6
2022-09-21T03:02:06.552Z,7.9
2022-09-21T03:04:14.447Z,3.5
2022-09-21T03:06:15.464Z,2.2
2022-09-21T03:08:16.697Z,3.6
2022-09-21T03:10:20.354Z,4.9
2022-09-21T03:12:27.073Z,2.7
2022-09-21T03:14:30.723Z,2.4
2022-09-21T03:16:34.314Z,3.4
2022-09-21T03:18:37.999Z,5.3
2022-09-21T03:20:41.635Z,2.9
2022-09-21T03:22:45.268Z,5
2022-09-21T03:24:48.903Z,7.2
2022-09-21T03:26:55.595Z,2
2022-09-21T03:28:59.253Z,5.4
2022-09-21T03:31:03.004Z,1.7
2022-09-21T03:32:06.245Z,4.1
2022-09-21T03:34:09.905Z,7
2022-09-21T03:36:13.542Z,2.3
2022-09-21T03:38:17.181Z,3.3
2022-09-21T03:40:23.932Z,5.7
2022-09-21T03:42:27.546Z,2.5
2022-09-21T03:52:45.745Z,4.4
2022-09-21T03:54:52.479Z,3.3
2022-09-21T03:56:56.132Z,5
2022-09-21T03:58:59.751Z,2.5
2022-09-21T04:03:07.088Z,5.9
2022-09-21T04:05:10.749Z,3.5
2022-09-21T04:07:14.374Z,8.9
2022-09-21T04:09:21.112Z,6.1
2022-09-21T04:11:24.749Z,2.2
2022-09-21T04:13:28.379Z,2.8
2022-09-21T04:15:32.152Z,2.3
2022-09-21T04:17:35.676Z,10
2022-09-21T04:19:39.301Z,4.2
2022-09-21T04:21:42.969Z,3.2
2022-09-21T04:23:49.700Z,10.2
2022-09-21T04:25:53.327Z,4.9
2022-09-21T04:27:56.985Z,5.3
2022-09-21T04:33:07.636Z,14
2022-09-21T04:39:21.641Z,3.8
2022-09-21T04:41:25.305Z,4.2
2022-09-21T04:43:28.967Z,4.8
2022-09-21T04:45:32.704Z,4.8
2022-09-21T04:47:36.257Z,3.3
2022-09-21T04:49:39.961Z,5.3
2022-09-21T04:51:46.607Z,6.2
2022-09-21T04:53:50.254Z,8.1
2022-09-21T04:55:53.932Z,15.4
2022-09-21T04:57:57.559Z,3.8
2022-09-21T05:00:01.200Z,6.3
2022-09-21T05:02:04.845Z,6.4
2022-09-21T05:04:08.587Z,2.9
2022-09-21T05:06:15.197Z,4.3
2022-09-21T05:08:18.875Z,3.2
2022-09-21T05:10:22.495Z,4.5
2022-09-21T05:14:29.808Z,4.9
2022-09-21T05:16:33.451Z,3.6
2022-09-21T05:18:37.106Z,3.2
2022-09-21T05:20:43.843Z,3.3
2022-09-21T05:22:47.467Z,4.3
2022-09-21T05:24:51.227Z,2.4
2022-09-21T05:27:15.628Z,4.4
2022-09-21T05:29:19.290Z,13.8
2022-09-21T05:31:23.000Z,2.7
2022-09-21T05:33:29.671Z,18.9
2022-09-21T05:35:33.299Z,3.7
2022-09-21T05:37:36.961Z,6.2
2022-09-21T05:39:40.620Z,3.1
2022-09-21T05:41:44.290Z,2.7
2022-09-21T05:43:47.948Z,9.2
2022-09-21T05:45:51.662Z,6
2022-09-21T05:47:58.280Z,2.4
2022-09-21T05:50:01.949Z,3
2022-09-21T05:52:05.609Z,4.3
2022-09-21T05:54:09.258Z,5.2
2022-09-21T05:56:12.889Z,4.5
2022-09-21T05:58:16.565Z,2.5
2022-09-21T06:00:20.189Z,3.2
2022-09-21T06:02:26.974Z,3.6
2022-09-21T06:04:30.614Z,4.8
2022-09-21T06:06:34.277Z,5.7
2022-09-21T06:08:37.930Z,5.9
2022-09-21T06:10:41.565Z,3.5
2022-09-21T06:12:45.225Z,3.8
2022-09-21T06:14:48.849Z,3.1
2022-09-21T06:16:55.629Z,2.9
2022-09-21T06:18:59.259Z,3.9
2022-09-21T06:21:02.887Z,2.5
2022-09-21T06:24:09.908Z,3.2
2022-09-21T06:26:13.550Z,4.7
2022-09-21T06:30:23.922Z,5.1
2022-09-21T06:32:27.538Z,5.7
2022-09-21T06:36:34.821Z,3
2022-09-21T06:38:38.467Z,4.3
2022-09-21T06:40:42.116Z,7.4
2022-09-21T06:42:45.729Z,3.7
2022-09-21T06:44:52.421Z,6.6
2022-09-21T06:48:59.698Z,6
2022-09-21T06:51:03.308Z,4.3
2022-09-21T06:53:06.979Z,5.6
2022-09-21T06:55:10.568Z,5.2
2022-09-21T06:57:14.202Z,4.5
2022-09-21T06:59:20.845Z,5
2022-09-21T07:01:24.669Z,5.5
2022-09-21T07:03:28.115Z,3.1
2022-09-21T07:05:31.804Z,3.3
2022-09-21T07:07:35.323Z,9.5
2022-09-21T07:10:06.373Z,4.8
2022-09-21T07:11:42.553Z,6.4
2022-09-21T07:13:49.243Z,5.9
2022-09-21T07:15:53.440Z,9.4
2022-09-21T07:19:10.191Z,3
2022-09-21T07:21:04.918Z,4.7
2022-09-21T07:23:08.542Z,3.6
2022-09-21T07:25:12.267Z,3.7
2022-09-21T07:27:18.736Z,4.4
2022-09-21T07:29:22.331Z,6.1
2022-09-21T07:31:25.924Z,6.3
2022-09-21T07:33:32.756Z,5.7
2022-09-21T07:35:33.047Z,6.1
2022-09-21T07:37:36.628Z,3.1
2022-09-21T07:39:40.194Z,3.8
2022-09-21T07:41:46.817Z,4.6
2022-09-21T07:43:50.362Z,2.9
2022-09-21T07:45:53.957Z,2.7
2022-09-21T07:47:57.465Z,5.7
2022-09-21T07:50:00.999Z,8.5
2022-09-21T07:52:08.218Z,7.8
2022-09-21T07:54:08.302Z,5.9
2022-09-21T07:58:18.252Z,1.9
2022-09-21T08:00:21.705Z,5.3
2022-09-21T08:02:25.279Z,4.3
2022-09-21T08:04:28.739Z,5.1
2022-09-21T08:06:32.249Z,1.8
2022-09-21T08:08:35.761Z,4.7
2022-09-21T08:10:42.382Z,5.6
2022-09-21T08:12:45.911Z,2.8
2022-09-21T08:22:03.256Z,3.3
2022-09-21T08:24:09.838Z,4.1
2022-09-21T08:26:13.329Z,8.2
2022-09-21T08:28:16.797Z,3.6
2022-09-21T08:30:20.372Z,2.4
2022-09-21T08:32:46.876Z,9.6
2022-09-21T08:34:27.376Z,2.9
2022-09-21T08:36:30.865Z,4.3
2022-09-21T08:38:37.480Z,4.1
2022-09-21T08:40:41.001Z,2.7
2022-09-21T08:42:48.709Z,4.9
2022-09-21T08:44:47.952Z,3.1
2022-09-21T08:46:51.519Z,5.7
2022-09-21T08:48:54.945Z,2.9
2022-09-21T08:50:58.438Z,1.5
2022-09-21T08:53:05.055Z,3.6
2022-09-21T08:55:08.534Z,2.4
2022-09-21T08:57:12.065Z,5.2
2022-09-21T08:59:15.814Z,2.5
2022-09-21T09:01:19.331Z,6.7
2022-09-21T09:03:22.822Z,4.2
2022-09-21T09:07:32.909Z,7.5
2022-09-21T09:14:02.052Z,11.3
2022-09-21T09:16:05.581Z,3.7
2022-09-21T09:18:09.028Z,6.4
2022-09-21T09:20:15.598Z,3.5
2022-09-21T09:22:19.106Z,1.8
2022-09-21T09:24:22.589Z,3.4
2022-09-21T09:26:26.068Z,3.5
2022-09-21T09:28:29.564Z,3.1
2022-09-21T09:30:33.023Z,5.4
2022-09-21T09:32:36.509Z,3.5
2022-09-21T09:34:43.068Z,2
2022-09-21T09:36:58.253Z,2.5
2022-09-21T09:38:49.968Z,5.9
2022-09-21T09:40:53.413Z,9
2022-09-21T09:43:00.147Z,6.4
2022-09-21T09:45:00.275Z,10.7
2022-09-21T09:47:03.756Z,7.7
2022-09-21T09:49:10.116Z,2.8
2022-09-21T09:51:13.486Z,2.3
2022-09-21T09:53:16.800Z,5.2
2022-09-21T09:55:20.098Z,0.8
2022-09-21T09:57:23.345Z,2.7
2022-09-21T09:59:26.595Z,2.4
2022-09-21T10:01:29.880Z,3.1
2022-09-21T10:03:36.117Z,6.9
2022-09-21T10:05:39.512Z,4.7
2022-09-21T10:07:42.598Z,2.3
2022-09-21T10:10:48.948Z,4.1
2022-09-21T10:12:52.153Z,2
2022-09-21T10:14:55.343Z,2.1
2022-09-21T10:17:01.631Z,6
2022-09-21T10:19:04.833Z,7.6
2022-09-21T10:21:08.003Z,4.3
2022-09-21T10:23:11.241Z,1.4
2022-09-21T10:25:14.445Z,4.4
2022-09-21T10:27:17.683Z,6.7
2022-09-21T10:29:20.889Z,2.7
2022-09-21T10:31:27.238Z,2.8
2022-09-21T10:35:33.477Z,4.3
2022-09-21T10:37:36.689Z,2
2022-09-21T10:39:39.818Z,6.3
2022-09-21T10:41:43.029Z,2.6
2022-09-21T10:43:46.206Z,3.3
2022-09-21T10:45:52.424Z,5.6
2022-09-21T10:47:55.488Z,10.2
2022-09-21T10:54:04.835Z,2.2
2022-09-21T10:56:16.709Z,4.9
2022-09-21T11:00:17.147Z,2.3
2022-09-21T11:04:23.266Z,1.2
2022-09-21T11:05:26.308Z,0.9
2022-09-21T11:07:29.371Z,2.9
2022-09-21T11:09:32.416Z,3.1
2022-09-21T11:11:35.434Z,5.6
2022-09-21T11:13:41.523Z,2.3
2022-09-21T11:15:44.662Z,2.4
2022-09-21T11:17:47.567Z,6.1
2022-09-21T11:19:50.588Z,1.4
2022-09-21T11:21:53.600Z,1.7
2022-09-21T11:23:56.620Z,3.7
2022-09-21T11:25:59.630Z,2.3
2022-09-21T11:30:08.725Z,0.8
2022-09-21T11:34:14.802Z,1.8
2022-09-21T11:40:23.952Z,1.2
2022-09-21T11:42:29.970Z,0.4
2022-09-21T11:46:36.041Z,1.3
2022-09-21T11:48:39.029Z,2.3
2022-09-21T11:50:42.167Z,4.2
2022-09-21T11:52:45.119Z,0.7
2022-09-21T11:54:48.191Z,1.4
2022-09-21T11:56:54.338Z,5.2
2022-09-21T11:58:57.359Z,1.9
2022-09-21T12:01:00.467Z,1.8
2022-09-21T12:02:03.565Z,1.3
2022-09-21T12:04:06.575Z,3.1
2022-09-21T12:06:09.644Z,1.2
2022-09-21T12:08:12.708Z,1.2
2022-09-21T12:10:18.827Z,1.6
2022-09-21T12:12:21.809Z,0.7
2022-09-21T12:16:27.933Z,4.5
2022-09-21T12:18:30.855Z,0.8
2022-09-21T12:22:36.900Z,2.5
2022-09-21T12:24:42.978Z,1.4
2022-09-21T12:26:46.009Z,0.9
2022-09-21T12:30:52.130Z,1.2
2022-09-21T12:32:55.130Z,2.9
2022-09-21T12:34:58.180Z,1.6
2022-09-21T12:37:01.329Z,0.5
2022-09-21T12:39:07.412Z,1.6
2022-09-21T12:41:10.489Z,2.3
2022-09-21T12:43:13.594Z,3.8
2022-09-21T12:45:16.708Z,2.2
2022-09-21T12:47:19.853Z,1.2
2022-09-21T12:49:22.974Z,1.6
2022-09-21T12:51:26.144Z,0.7
2022-09-21T12:53:32.337Z,1.3
2022-09-21T12:55:35.679Z,1.3
2022-09-21T12:57:53.562Z,1.1
2022-09-21T13:00:00.332Z,1.8
2022-09-21T13:04:06.797Z,0.7
2022-09-21T13:06:13.037Z,1.2
2022-09-21T13:08:16.361Z,0.8
2022-09-21T13:12:22.868Z,1.3
2022-09-21T13:14:26.178Z,0.4
2022-09-21T13:16:31.127Z,1
2022-09-21T13:18:36.277Z,2.9
2022-09-21T13:22:44.154Z,0.8
2022-09-21T13:26:50.883Z,0.8
2022-09-21T13:28:54.146Z,1.2
2022-09-21T13:30:57.554Z,0.5
2022-09-21T13:35:07.313Z,4.8
2022-09-21T13:37:10.694Z,3.6
2022-09-21T13:45:24.233Z,2.4
2022-09-21T13:49:33.895Z,2.1
2022-09-21T13:54:54.043Z,2.3
2022-09-21T14:00:53.772Z,1.2
2022-09-21T14:03:00.270Z,0.6
2022-09-21T14:05:03.528Z,0.5
2022-09-21T14:09:10.256Z,4
2022-09-21T14:11:13.577Z,1.4
2022-09-21T14:13:16.852Z,4.6
2022-09-21T14:15:20.121Z,0.7
2022-09-21T14:21:33.060Z,2.7
2022-09-21T14:27:45.725Z,0.7
2022-09-21T14:31:52.298Z,2.5
2022-09-21T14:33:55.463Z,2.1
2022-09-21T14:35:58.658Z,0.9
2022-09-21T14:40:05.088Z,0.4
2022-09-21T14:44:11.568Z,0.4
2022-09-21T14:46:18.079Z,1
2022-09-21T14:48:21.244Z,1
2022-09-21T14:50:24.607Z,1
2022-09-21T14:51:27.729Z,0.5
2022-09-21T14:53:31.058Z,3.3
2022-09-21T14:55:34.299Z,3.9
2022-09-21T14:59:44.059Z,1.7
2022-09-21T15:01:47.411Z,0.7
2022-09-21T15:03:50.863Z,0.9
2022-09-21T15:05:54.136Z,0.5
2022-09-21T15:07:57.519Z,0.7
2022-09-21T15:12:04.268Z,1.2
2022-09-21T15:14:10.775Z,2.9
2022-09-21T15:16:14.223Z,0.9
2022-09-21T15:18:17.535Z,3.7
2022-09-21T15:20:20.949Z,0.5
2022-09-21T15:22:24.342Z,3.9
2022-09-21T15:24:27.743Z,2.2
2022-09-21T15:26:31.139Z,5.3
2022-09-21T15:28:58.029Z,4
2022-09-21T15:32:44.508Z,4
2022-09-21T15:34:47.928Z,2.5
2022-09-21T15:36:51.341Z,0.5
2022-09-21T15:38:54.764Z,0.8
2022-09-21T15:41:02.743Z,6
2022-09-21T15:43:04.830Z,4.3
2022-09-21T15:45:08.171Z,1.6
2022-09-21T15:47:11.616Z,1
2022-09-21T15:48:14.881Z,1.3
2022-09-21T15:50:18.314Z,2.5
2022-09-21T15:52:21.770Z,1.4
2022-09-21T15:54:25.248Z,0.9
2022-09-21T15:56:31.779Z,3.1
2022-09-21T16:00:38.778Z,3.2
2022-09-21T16:02:42.194Z,2.1
2022-09-21T16:04:45.647Z,3.2
2022-09-21T16:06:49.102Z,4.4
2022-09-21T16:08:52.552Z,8.9
2022-09-21T16:13:02.605Z,0.8
2022-09-21T16:15:06.067Z,0.8
2022-09-21T16:17:09.542Z,1.7
2022-09-21T16:19:13.006Z,0.7
2022-09-21T16:21:16.506Z,0.8
2022-09-21T16:23:19.971Z,3.2
2022-09-21T16:29:33.532Z,3
2022-09-21T16:31:37.046Z,2.4
2022-09-21T16:33:40.498Z,4.9
2022-09-21T16:35:43.997Z,4.7
2022-09-21T16:37:47.476Z,0.2
2022-09-21T16:39:54.072Z,1.8
2022-09-21T16:41:57.595Z,14.7
2022-09-21T16:48:28.691Z,3.1
2022-09-21T16:50:32.134Z,0.2
2022-09-21T16:58:49.239Z,1.3
2022-09-21T17:00:55.787Z,0.9
2022-09-21T17:02:56.256Z,6
2022-09-21T17:04:59.720Z,1.4
2022-09-21T17:07:06.364Z,1.6
2022-09-21T17:09:09.874Z,4.1
2022-09-21T17:11:13.393Z,0.5
2022-09-21T17:17:23.956Z,0.6
2022-09-21T17:19:27.467Z,0.9
2022-09-21T17:21:34.081Z,1.2
2022-09-21T17:27:44.650Z,0.6
2022-09-21T17:31:51.722Z,6.2
2022-09-21T17:33:55.252Z,3.3
2022-09-21T17:41:12.497Z,1.3
2022-09-21T17:43:15.796Z,3.1
2022-09-21T17:45:19.313Z,2
2022-09-21T17:47:22.851Z,10.9
2022-09-21T17:49:29.465Z,2.5
2022-09-21T17:51:33.031Z,3.5
2022-09-21T17:53:36.567Z,4.2
2022-09-21T17:55:40.086Z,6.3
2022-09-21T17:57:43.671Z,6.3
2022-09-21T17:59:47.232Z,6.9
2022-09-21T18:01:50.843Z,6.1
2022-09-21T18:03:57.394Z,12.6
2022-09-21T18:06:00.975Z,11.8
2022-09-21T18:08:04.505Z,9.9
2022-09-21T18:10:08.056Z,8
2022-09-21T18:12:11.656Z,13.9
2022-09-21T18:14:15.185Z,18.6
2022-09-21T18:16:18.794Z,9.7
2022-09-21T18:18:28.290Z,11.2
2022-09-21T18:20:28.937Z,9.8
2022-09-21T18:22:32.495Z,9.7
2022-09-21T18:24:36.053Z,7.7
2022-09-21T18:26:39.616Z,6.6
2022-09-21T18:28:43.157Z,6.3
2022-09-21T18:30:46.762Z,7.7
2022-09-21T18:32:53.431Z,6.6
2022-09-21T18:34:56.936Z,12.5
2022-09-21T18:37:00.487Z,5.6
2022-09-21T18:38:03.817Z,7.9
2022-09-21T18:40:07.414Z,9.8
2022-09-21T18:42:10.957Z,11.8
2022-09-21T18:44:14.532Z,14.2
2022-09-21T18:46:21.179Z,10.6
2022-09-21T18:48:24.805Z,14.2
2022-09-21T18:50:28.300Z,16.8
2022-09-21T18:54:35.466Z,11.4
2022-09-21T18:58:42.587Z,13.7
2022-09-21T19:09:03.600Z,14.5
2022-09-21T19:13:12.310Z,19.1
2022-09-21T19:15:27.517Z,29.8
2022-09-21T19:17:22.514Z,14
2022-09-21T19:19:26.102Z,13.4
2022-09-21T19:21:32.428Z,15.8
2022-09-21T19:23:33.239Z,16.2
2022-09-21T19:25:36.827Z,17.2
2022-09-21T19:29:47.112Z,17.6
2022-09-21T19:31:50.624Z,25.4
2022-09-21T19:33:54.208Z,17.8
2022-09-21T19:37:05.644Z,20.7
2022-09-21T19:39:04.821Z,15.5
2022-09-21T19:41:08.274Z,27.2
2022-09-21T19:43:14.955Z,15.8
2022-09-21T19:49:25.723Z,16.8
2022-09-21T19:51:29.330Z,14.4
2022-09-21T19:53:32.923Z,11.6
2022-09-21T19:55:36.524Z,19.3
2022-09-21T19:57:43.207Z,18.1
2022-09-21T19:59:46.793Z,14.1
2022-09-21T20:03:54.007Z,11.7
2022-09-21T20:05:57.636Z,15.5
2022-09-21T20:10:04.837Z,15.1
2022-09-21T20:14:15.131Z,16
2022-09-21T20:16:19.359Z,10.9
2022-09-21T20:18:22.349Z,12.3
2022-09-21T20:20:25.961Z,15.1
2022-09-21T20:22:29.566Z,12.6
2022-09-21T20:26:39.893Z,12
2022-09-21T20:28:43.479Z,11.5
2022-09-21T20:30:47.156Z,14.8
2022-09-21T20:33:05.591Z,14.7
2022-09-21T20:35:09.221Z,12.2
2022-09-21T20:37:12.786Z,14.2
2022-09-21T20:39:19.505Z,12.2
2022-09-21T20:41:23.101Z,11.6
2022-09-21T20:43:31.727Z,11.9
2022-09-21T20:45:30.361Z,12.3
2022-09-21T20:47:34.064Z,14.7
2022-09-21T20:49:37.576Z,19.3
2022-09-21T20:57:55.189Z,14
2022-09-21T21:02:02.444Z,14.2
2022-09-21T21:04:06.125Z,14.3
2022-09-21T21:06:09.672Z,15.9
2022-09-21T21:10:19.961Z,13.8
2022-09-21T21:14:27.203Z,14.4
2022-09-21T21:16:30.858Z,13.2
2022-09-21T21:18:34.425Z,16.1
2022-09-21T21:22:44.794Z,14.2
2022-09-21T21:27:01.882Z,13.4
2022-09-21T21:27:55.412Z,14.3
2022-09-21T21:29:58.990Z,16.7
2022-09-21T21:32:02.644Z,13.7
2022-09-21T21:34:06.247Z,16.3
2022-09-21T21:36:13.000Z,14.8
2022-09-21T21:38:16.682Z,18
2022-09-21T21:40:20.271Z,21.4
2022-09-21T21:42:23.855Z,15
2022-09-21T21:44:27.498Z,15.3
2022-09-21T21:48:34.727Z,17.3
2022-09-21T21:50:41.399Z,22.2
2022-09-21T21:52:45.068Z,19.2
2022-09-21T21:54:48.710Z,14.6
2022-09-21T21:56:52.337Z,18.4
2022-09-21T21:58:55.951Z,15.8
2022-09-21T22:00:59.721Z,23.7
2022-09-21T22:03:03.244Z,18.5
2022-09-21T22:05:09.955Z,15
2022-09-21T22:07:13.572Z,17.5
2022-09-21T22:09:17.242Z,16.6
2022-09-21T22:11:20.882Z,16.3
2022-09-21T22:13:24.507Z,17.8
2022-09-21T22:15:28.239Z,16.2
2022-09-21T22:17:31.760Z,16.5
2022-09-21T22:19:38.492Z,20.9
2022-09-21T22:21:42.116Z,15.6
2022-09-21T22:23:45.791Z,13.6
2022-09-21T22:26:52.770Z,27.8
2022-09-21T22:28:56.375Z,15.1
2022-09-21T22:31:00.040Z,21.7
2022-09-21T22:33:06.702Z,26.8
2022-09-21T22:35:10.381Z,20.1
2022-09-21T22:37:14.031Z,19.4
2022-09-21T22:39:17.642Z,16.8
2022-09-21T22:41:21.457Z,17.5
2022-09-21T22:43:24.940Z,27.5
2022-09-21T22:45:28.649Z,15
2022-09-21T22:47:35.294Z,20.1
2022-09-21T22:51:42.595Z,16.2
2022-09-21T22:53:46.247Z,19.7
2022-09-21T22:57:53.515Z,16.1
2022-09-21T22:59:57.192Z,26.7
2022-09-21T23:02:03.875Z,19.5
2022-09-21T23:04:07.650Z,18.1
2022-09-21T23:06:11.302Z,15.5
2022-09-21T23:08:14.777Z,13.8
2022-09-21T23:12:22.095Z,12.7
2022-09-21T23:16:32.534Z,22.4
2022-09-21T23:18:36.073Z,20.9
2022-09-21T23:20:39.724Z,15.1
2022-09-21T23:21:43.098Z,18.1
2022-09-21T23:23:46.720Z,15.7
2022-09-21T23:25:50.330Z,19.2
2022-09-21T23:27:53.973Z,17.6
2022-09-21T23:30:00.699Z,17.1
2022-09-21T23:32:04.404Z,17.2
2022-09-21T23:34:07.984Z,15.6
2022-09-21T23:38:15.278Z,16.5
2022-09-21T23:40:19.019Z,13.7
2022-09-21T23:42:22.557Z,20.1
2022-09-21T23:44:29.322Z,14.6
2022-09-21T23:46:33.013Z,21.2
2022-09-21T23:48:36.648Z,12.9
2022-09-21T23:50:40.274Z,21.3
2022-09-21T23:52:43.919Z,12.9
2022-09-21T23:54:47.577Z,16.9
2022-09-21T23:58:57.917Z,13.7
